sensor_id;sensor_type;location;lat;lon;timestamp;pressure;altitude;pressure_sealevel;temperature;humidity
11542;BME280;5827;49.482;7.716;2023-05-09T00:01:58;99069.50;;;17.50;98.96
11542;BME280;5827;49.482;7.716;2023-05-09T00:03:59;99072.38;;;17.74;99.05
11542;BME280;5827;49.482;7.716;2023-05-09T00:06:01;99074.91;;;17.55;98.33
11542;BME280;5827;49.482;7.716;2023-05-09T00:08:04;99062.44;;;17.15;100.00
11542;BME280;5827;49.482;7.716;2023-05-09T00:10:07;99058.38;;;17.12;100.00
11542;BME280;5827;49.482;7.716;2023-05-09T00:12:09;99064.75;;;17.32;100.00
11542;BME280;5827;49.482;7.716;2023-05-09T00:14:11;99074.19;;;17.39;100.00
11542;BME280;5827;49.482;7.716;2023-05-09T00:16:13;99074.16;;;17.44;99.62
11542;BME280;5827;49.482;7.716;2023-05-09T00:18:15;99066.63;;;17.36;99.82
11542;BME280;5827;49.482;7.716;2023-05-09T00:20:17;99068.47;;;17.41;98.83
11542;BME280;5827;49.482;7.716;2023-05-09T00:22:19;99062.09;;;17.21;99.29
11542;BME280;5827;49.482;7.716;2023-05-09T00:24:21;99056.28;;;17.43;98.37
11542;BME280;5827;49.482;7.716;2023-05-09T00:26:24;99052.03;;;17.27;98.27
11542;BME280;5827;49.482;7.716;2023-05-09T00:28:25;99056.97;;;17.59;96.37
11542;BME280;5827;49.482;7.716;2023-05-09T00:30:27;99051.56;;;17.59;96.64
11542;BME280;5827;49.482;7.716;2023-05-09T00:32:28;99057.28;;;17.58;96.29
11542;BME280;5827;49.482;7.716;2023-05-09T00:34:31;99050.69;;;17.30;97.30
11542;BME280;5827;49.482;7.716;2023-05-09T00:36:33;99049.00;;;17.39;96.51
11542;BME280;5827;49.482;7.716;2023-05-09T00:38:34;99044.81;;;17.12;97.66
11542;BME280;5827;49.482;7.716;2023-05-09T00:40:36;99048.31;;;17.18;97.77
11542;BME280;5827;49.482;7.716;2023-05-09T00:42:39;99041.53;;;17.20;98.42
11542;BME280;5827;49.482;7.716;2023-05-09T00:44:40;99038.22;;;17.34;97.51
11542;BME280;5827;49.482;7.716;2023-05-09T00:46:42;99036.09;;;17.25;96.89
11542;BME280;5827;49.482;7.716;2023-05-09T00:48:43;99023.31;;;17.31;96.52
11542;BME280;5827;49.482;7.716;2023-05-09T00:50:45;99029.31;;;17.28;96.77
11542;BME280;5827;49.482;7.716;2023-05-09T00:52:51;99025.75;;;17.33;95.52
11542;BME280;5827;49.482;7.716;2023-05-09T00:54:54;99020.13;;;17.24;96.55
11542;BME280;5827;49.482;7.716;2023-05-09T00:56:55;99014.78;;;17.09;97.17
11542;BME280;5827;49.482;7.716;2023-05-09T00:58:59;99015.38;;;17.06;96.65
11542;BME280;5827;49.482;7.716;2023-05-09T01:01:00;99020.00;;;17.00;97.07
11542;BME280;5827;49.482;7.716;2023-05-09T01:03:03;99022.59;;;17.20;95.79
11542;BME280;5827;49.482;7.716;2023-05-09T01:05:05;99021.56;;;17.11;96.85
11542;BME280;5827;49.482;7.716;2023-05-09T01:07:11;99022.31;;;17.17;96.27
11542;BME280;5827;49.482;7.716;2023-05-09T01:09:19;99021.81;;;17.15;96.59
11542;BME280;5827;49.482;7.716;2023-05-09T01:11:28;99018.81;;;17.16;96.99
11542;BME280;5827;49.482;7.716;2023-05-09T01:13:37;99021.03;;;17.04;96.53
11542;BME280;5827;49.482;7.716;2023-05-09T01:15:46;99007.28;;;17.00;96.31
11542;BME280;5827;49.482;7.716;2023-05-09T01:17:56;99013.22;;;17.02;95.94
11542;BME280;5827;49.482;7.716;2023-05-09T01:20:03;99018.78;;;17.21;95.94
11542;BME280;5827;49.482;7.716;2023-05-09T01:22:10;99015.47;;;17.30;95.43
11542;BME280;5827;49.482;7.716;2023-05-09T01:24:24;99016.03;;;17.26;95.72
11542;BME280;5827;49.482;7.716;2023-05-09T01:26:42;99013.09;;;17.23;95.84
11542;BME280;5827;49.482;7.716;2023-05-09T01:31:19;98997.03;;;17.32;96.24
11542;BME280;5827;49.482;7.716;2023-05-09T01:33:23;98990.97;;;17.45;95.90
11542;BME280;5827;49.482;7.716;2023-05-09T01:35:28;99005.53;;;17.54;95.44
11542;BME280;5827;49.482;7.716;2023-05-09T01:37:32;98992.63;;;17.46;95.59
11542;BME280;5827;49.482;7.716;2023-05-09T01:39:37;98994.19;;;17.52;95.91
11542;BME280;5827;49.482;7.716;2023-05-09T01:41:40;98990.44;;;17.48;96.31
11542;BME280;5827;49.482;7.716;2023-05-09T01:43:44;98994.31;;;17.32;97.60
11542;BME280;5827;49.482;7.716;2023-05-09T01:45:46;99002.38;;;17.47;97.01
11542;BME280;5827;49.482;7.716;2023-05-09T01:47:50;99002.97;;;17.39;94.82
11542;BME280;5827;49.482;7.716;2023-05-09T01:49:54;98999.16;;;17.40;94.64
11542;BME280;5827;49.482;7.716;2023-05-09T01:51:57;99002.41;;;17.42;94.41
11542;BME280;5827;49.482;7.716;2023-05-09T01:54:00;99004.75;;;17.53;93.85
11542;BME280;5827;49.482;7.716;2023-05-09T01:56:03;98996.66;;;17.48;94.32
11542;BME280;5827;49.482;7.716;2023-05-09T01:58:06;99003.84;;;17.63;93.17
11542;BME280;5827;49.482;7.716;2023-05-09T02:00:09;99007.78;;;17.47;92.55
11542;BME280;5827;49.482;7.716;2023-05-09T02:02:13;99001.78;;;17.50;93.57
11542;BME280;5827;49.482;7.716;2023-05-09T02:04:17;99003.38;;;17.56;93.38
11542;BME280;5827;49.482;7.716;2023-05-09T02:06:21;99005.16;;;17.37;94.45
11542;BME280;5827;49.482;7.716;2023-05-09T02:08:23;98990.59;;;17.22;95.25
11542;BME280;5827;49.482;7.716;2023-05-09T02:10:26;98988.03;;;17.02;96.34
11542;BME280;5827;49.482;7.716;2023-05-09T02:12:28;98990.84;;;17.26;96.25
11542;BME280;5827;49.482;7.716;2023-05-09T02:14:29;98989.66;;;17.76;93.55
11542;BME280;5827;49.482;7.716;2023-05-09T02:16:31;98989.44;;;17.68;93.78
11542;BME280;5827;49.482;7.716;2023-05-09T02:18:32;98989.41;;;17.73;93.30
11542;BME280;5827;49.482;7.716;2023-05-09T02:20:35;98989.97;;;17.70;93.70
11542;BME280;5827;49.482;7.716;2023-05-09T02:22:38;98981.13;;;17.59;94.88
11542;BME280;5827;49.482;7.716;2023-05-09T02:24:42;98985.53;;;17.50;95.29
11542;BME280;5827;49.482;7.716;2023-05-09T02:26:44;98983.88;;;17.88;94.18
11542;BME280;5827;49.482;7.716;2023-05-09T02:28:46;98984.28;;;17.71;94.51
11542;BME280;5827;49.482;7.716;2023-05-09T02:30:48;98980.22;;;17.74;94.66
11542;BME280;5827;49.482;7.716;2023-05-09T02:32:52;98983.88;;;17.88;94.50
11542;BME280;5827;49.482;7.716;2023-05-09T02:34:56;98991.66;;;17.95;93.81
11542;BME280;5827;49.482;7.716;2023-05-09T02:36:59;98989.53;;;17.92;93.51
11542;BME280;5827;49.482;7.716;2023-05-09T02:39:01;98979.88;;;17.46;95.75
11542;BME280;5827;49.482;7.716;2023-05-09T02:41:03;98981.34;;;17.34;97.49
11542;BME280;5827;49.482;7.716;2023-05-09T02:43:04;98978.66;;;17.63;96.53
11542;BME280;5827;49.482;7.716;2023-05-09T02:45:07;98978.84;;;17.42;97.16
11542;BME280;5827;49.482;7.716;2023-05-09T02:47:09;98975.69;;;17.64;96.32
11542;BME280;5827;49.482;7.716;2023-05-09T02:49:11;98981.19;;;17.49;97.01
11542;BME280;5827;49.482;7.716;2023-05-09T02:51:12;98971.22;;;17.10;99.06
11542;BME280;5827;49.482;7.716;2023-05-09T02:53:15;98960.94;;;17.07;98.43
11542;BME280;5827;49.482;7.716;2023-05-09T02:55:17;98970.53;;;17.28;98.80
11542;BME280;5827;49.482;7.716;2023-05-09T02:57:19;98967.84;;;17.58;97.24
11542;BME280;5827;49.482;7.716;2023-05-09T02:59:20;98962.88;;;17.70;96.59
11542;BME280;5827;49.482;7.716;2023-05-09T03:01:21;98965.88;;;17.73;95.57
11542;BME280;5827;49.482;7.716;2023-05-09T03:03:23;98954.38;;;17.82;95.01
11542;BME280;5827;49.482;7.716;2023-05-09T03:05:24;98956.88;;;17.73;95.44
11542;BME280;5827;49.482;7.716;2023-05-09T03:07:26;98947.13;;;17.43;96.93
11542;BME280;5827;49.482;7.716;2023-05-09T03:09:29;98942.00;;;17.41;97.09
11542;BME280;5827;49.482;7.716;2023-05-09T03:11:30;98944.66;;;17.46;96.49
11542;BME280;5827;49.482;7.716;2023-05-09T03:13:32;98940.63;;;17.44;96.27
11542;BME280;5827;49.482;7.716;2023-05-09T03:15:33;98939.97;;;17.57;95.87
11542;BME280;5827;49.482;7.716;2023-05-09T03:17:34;98938.06;;;17.58;95.20
11542;BME280;5827;49.482;7.716;2023-05-09T03:19:36;98936.59;;;17.36;96.67
11542;BME280;5827;49.482;7.716;2023-05-09T03:21:37;98938.97;;;17.48;97.21
11542;BME280;5827;49.482;7.716;2023-05-09T03:23:39;98935.59;;;17.27;97.32
11542;BME280;5827;49.482;7.716;2023-05-09T03:25:42;98942.16;;;17.55;96.56
11542;BME280;5827;49.482;7.716;2023-05-09T03:27:43;98947.44;;;17.70;95.97
11542;BME280;5827;49.482;7.716;2023-05-09T03:29:45;98935.47;;;17.76;95.69
11542;BME280;5827;49.482;7.716;2023-05-09T03:31:46;98942.00;;;17.75;95.78
11542;BME280;5827;49.482;7.716;2023-05-09T03:33:48;98937.94;;;17.68;96.51
11542;BME280;5827;49.482;7.716;2023-05-09T03:35:50;98936.06;;;17.73;96.06
11542;BME280;5827;49.482;7.716;2023-05-09T03:37:52;98937.25;;;17.57;96.84
11542;BME280;5827;49.482;7.716;2023-05-09T03:39:54;98932.19;;;17.45;98.22
11542;BME280;5827;49.482;7.716;2023-05-09T03:41:56;98919.47;;;17.46;98.67
11542;BME280;5827;49.482;7.716;2023-05-09T03:43:58;98927.50;;;17.56;97.99
11542;BME280;5827;49.482;7.716;2023-05-09T03:45:59;98929.94;;;17.58;97.98
11542;BME280;5827;49.482;7.716;2023-05-09T03:48:01;98936.75;;;17.50;98.55
11542;BME280;5827;49.482;7.716;2023-05-09T03:50:05;98933.78;;;17.51;98.59
11542;BME280;5827;49.482;7.716;2023-05-09T03:52:07;98937.00;;;17.53;97.45
11542;BME280;5827;49.482;7.716;2023-05-09T03:54:08;98937.91;;;17.44;97.78
11542;BME280;5827;49.482;7.716;2023-05-09T03:56:10;98936.84;;;17.40;98.07
11542;BME280;5827;49.482;7.716;2023-05-09T03:58:13;98935.16;;;17.15;99.20
11542;BME280;5827;49.482;7.716;2023-05-09T04:00:15;98943.41;;;17.34;99.06
11542;BME280;5827;49.482;7.716;2023-05-09T04:02:17;98937.16;;;17.38;98.53
11542;BME280;5827;49.482;7.716;2023-05-09T04:04:18;98941.63;;;17.53;97.42
11542;BME280;5827;49.482;7.716;2023-05-09T04:06:20;98939.00;;;17.43;98.11
11542;BME280;5827;49.482;7.716;2023-05-09T04:08:21;98944.03;;;17.54;98.12
11542;BME280;5827;49.482;7.716;2023-05-09T04:10:23;98943.03;;;17.45;98.75
11542;BME280;5827;49.482;7.716;2023-05-09T04:12:25;98938.06;;;17.58;98.87
11542;BME280;5827;49.482;7.716;2023-05-09T04:14:28;98939.28;;;17.41;99.50
11542;BME280;5827;49.482;7.716;2023-05-09T04:16:29;98942.22;;;17.45;98.92
11542;BME280;5827;49.482;7.716;2023-05-09T04:18:31;98937.34;;;17.47;99.42
11542;BME280;5827;49.482;7.716;2023-05-09T04:20:32;98948.19;;;17.47;98.14
11542;BME280;5827;49.482;7.716;2023-05-09T04:22:34;98934.78;;;17.26;100.00
11542;BME280;5827;49.482;7.716;2023-05-09T04:24:35;98936.69;;;17.60;98.97
11542;BME280;5827;49.482;7.716;2023-05-09T04:26:37;98937.06;;;17.48;98.89
11542;BME280;5827;49.482;7.716;2023-05-09T04:28:38;98937.25;;;17.57;98.64
11542;BME280;5827;49.482;7.716;2023-05-09T04:30:41;98933.59;;;17.72;98.45
11542;BME280;5827;49.482;7.716;2023-05-09T04:32:43;98936.16;;;17.58;99.03
11542;BME280;5827;49.482;7.716;2023-05-09T04:34:45;98935.91;;;17.54;99.21
11542;BME280;5827;49.482;7.716;2023-05-09T04:36:46;98937.09;;;17.72;98.34
11542;BME280;5827;49.482;7.716;2023-05-09T04:38:48;98934.72;;;17.66;98.15
11542;BME280;5827;49.482;7.716;2023-05-09T04:40:49;98925.66;;;17.51;99.30
11542;BME280;5827;49.482;7.716;2023-05-09T04:42:51;98917.13;;;17.34;99.23
11542;BME280;5827;49.482;7.716;2023-05-09T04:44:52;98917.38;;;17.03;100.00
11542;BME280;5827;49.482;7.716;2023-05-09T04:46:55;98912.00;;;16.98;100.00
11542;BME280;5827;49.482;7.716;2023-05-09T04:48:57;98910.28;;;16.73;100.00
11542;BME280;5827;49.482;7.716;2023-05-09T04:50:58;98902.97;;;17.08;100.00
11542;BME280;5827;49.482;7.716;2023-05-09T04:53:00;98906.19;;;17.15;100.00
11542;BME280;5827;49.482;7.716;2023-05-09T04:55:01;98906.69;;;17.17;100.00
11542;BME280;5827;49.482;7.716;2023-05-09T04:57:03;98901.06;;;17.14;100.00
11542;BME280;5827;49.482;7.716;2023-05-09T04:59:05;98912.63;;;17.53;100.00
11542;BME280;5827;49.482;7.716;2023-05-09T05:01:07;98908.91;;;17.15;100.00
11542;BME280;5827;49.482;7.716;2023-05-09T05:03:10;98911.06;;;17.47;100.00
11542;BME280;5827;49.482;7.716;2023-05-09T05:05:11;98903.94;;;17.27;100.00
11542;BME280;5827;49.482;7.716;2023-05-09T05:07:13;98900.69;;;17.54;100.00
11542;BME280;5827;49.482;7.716;2023-05-09T05:09:14;98900.31;;;17.66;99.61
11542;BME280;5827;49.482;7.716;2023-05-09T05:11:16;98895.56;;;17.53;100.00
11542;BME280;5827;49.482;7.716;2023-05-09T05:13:18;98889.91;;;17.20;100.00
11542;BME280;5827;49.482;7.716;2023-05-09T05:15:20;98887.59;;;17.38;100.00
11542;BME280;5827;49.482;7.716;2023-05-09T05:17:22;98876.88;;;16.88;100.00
11542;BME280;5827;49.482;7.716;2023-05-09T05:19:25;98877.53;;;17.09;100.00
11542;BME280;5827;49.482;7.716;2023-05-09T05:21:26;98876.50;;;17.34;100.00
11542;BME280;5827;49.482;7.716;2023-05-09T05:23:28;98889.34;;;17.52;100.00
11542;BME280;5827;49.482;7.716;2023-05-09T05:25:29;98894.44;;;17.88;100.00
11542;BME280;5827;49.482;7.716;2023-05-09T05:27:31;98879.13;;;17.68;100.00
11542;BME280;5827;49.482;7.716;2023-05-09T05:29:32;98879.34;;;17.77;100.00
11542;BME280;5827;49.482;7.716;2023-05-09T05:31:34;98883.81;;;17.92;100.00
11542;BME280;5827;49.482;7.716;2023-05-09T05:33:35;98885.44;;;17.93;100.00
11542;BME280;5827;49.482;7.716;2023-05-09T05:35:38;98886.28;;;17.88;100.00
11542;BME280;5827;49.482;7.716;2023-05-09T05:37:40;98885.59;;;18.01;100.00
11542;BME280;5827;49.482;7.716;2023-05-09T05:39:41;98878.56;;;17.71;100.00
11542;BME280;5827;49.482;7.716;2023-05-09T05:41:43;98885.25;;;18.08;100.00
11542;BME280;5827;49.482;7.716;2023-05-09T05:43:44;98879.38;;;18.01;100.00
11542;BME280;5827;49.482;7.716;2023-05-09T05:45:46;98886.75;;;18.19;100.00
11542;BME280;5827;49.482;7.716;2023-05-09T05:47:47;98889.31;;;18.29;100.00
11542;BME280;5827;49.482;7.716;2023-05-09T05:49:49;98895.72;;;18.39;100.00
11542;BME280;5827;49.482;7.716;2023-05-09T05:51:52;98887.13;;;18.32;100.00
11542;BME280;5827;49.482;7.716;2023-05-09T05:53:53;98880.06;;;17.88;100.00
11542;BME280;5827;49.482;7.716;2023-05-09T05:55:54;98878.84;;;17.99;100.00
11542;BME280;5827;49.482;7.716;2023-05-09T05:57:56;98872.78;;;18.07;100.00
11542;BME280;5827;49.482;7.716;2023-05-09T05:59:57;98872.88;;;18.21;100.00
11542;BME280;5827;49.482;7.716;2023-05-09T06:01:59;98874.78;;;18.20;100.00
11542;BME280;5827;49.482;7.716;2023-05-09T06:04:00;98875.44;;;18.12;100.00
11542;BME280;5827;49.482;7.716;2023-05-09T06:06:02;98862.84;;;18.21;100.00
11542;BME280;5827;49.482;7.716;2023-05-09T06:08:05;98863.97;;;18.58;100.00
11542;BME280;5827;49.482;7.716;2023-05-09T06:10:07;98866.94;;;18.81;100.00
11542;BME280;5827;49.482;7.716;2023-05-09T06:12:08;98861.66;;;18.70;100.00
11542;BME280;5827;49.482;7.716;2023-05-09T06:14:11;98866.78;;;18.91;100.00
11542;BME280;5827;49.482;7.716;2023-05-09T06:16:12;98864.09;;;19.04;99.28
11542;BME280;5827;49.482;7.716;2023-05-09T06:18:14;98864.59;;;18.93;99.86
11542;BME280;5827;49.482;7.716;2023-05-09T06:20:15;98854.22;;;18.57;100.00
11542;BME280;5827;49.482;7.716;2023-05-09T06:22:17;98863.28;;;18.71;100.00
11542;BME280;5827;49.482;7.716;2023-05-09T06:24:20;98860.13;;;18.83;100.00
11542;BME280;5827;49.482;7.716;2023-05-09T06:26:21;98858.75;;;18.99;100.00
11542;BME280;5827;49.482;7.716;2023-05-09T06:28:23;98858.97;;;19.03;100.00
11542;BME280;5827;49.482;7.716;2023-05-09T06:30:24;98852.25;;;19.14;100.00
11542;BME280;5827;49.482;7.716;2023-05-09T06:32:26;98847.03;;;18.66;100.00
11542;BME280;5827;49.482;7.716;2023-05-09T06:34:27;98843.00;;;18.83;100.00
11542;BME280;5827;49.482;7.716;2023-05-09T06:36:29;98836.81;;;18.96;100.00
11542;BME280;5827;49.482;7.716;2023-05-09T06:38:32;98824.56;;;18.23;100.00
11542;BME280;5827;49.482;7.716;2023-05-09T06:40:35;98840.97;;;18.74;100.00
11542;BME280;5827;49.482;7.716;2023-05-09T06:42:37;98836.19;;;19.18;100.00
11542;BME280;5827;49.482;7.716;2023-05-09T06:44:38;98839.16;;;19.35;100.00
11542;BME280;5827;49.482;7.716;2023-05-09T06:46:40;98838.41;;;19.16;100.00
11542;BME280;5827;49.482;7.716;2023-05-09T06:48:41;98836.56;;;19.44;100.00
11542;BME280;5827;49.482;7.716;2023-05-09T06:50:43;98836.84;;;19.42;100.00
11542;BME280;5827;49.482;7.716;2023-05-09T06:52:44;98834.34;;;19.60;100.00
11542;BME280;5827;49.482;7.716;2023-05-09T06:54:46;98829.22;;;19.58;100.00
11542;BME280;5827;49.482;7.716;2023-05-09T06:56:49;98827.81;;;19.74;99.62
11542;BME280;5827;49.482;7.716;2023-05-09T06:58:50;98824.50;;;19.77;100.00
11542;BME280;5827;49.482;7.716;2023-05-09T07:00:52;98818.97;;;19.69;100.00
11542;BME280;5827;49.482;7.716;2023-05-09T07:02:53;98819.38;;;19.90;99.53
11542;BME280;5827;49.482;7.716;2023-05-09T07:04:55;98810.97;;;19.31;100.00
11542;BME280;5827;49.482;7.716;2023-05-09T07:06:56;98817.03;;;19.97;99.09
11542;BME280;5827;49.482;7.716;2023-05-09T07:08:59;98822.66;;;20.28;97.76
11542;BME280;5827;49.482;7.716;2023-05-09T07:11:01;98822.41;;;20.38;96.69
11542;BME280;5827;49.482;7.716;2023-05-09T07:13:03;98818.09;;;20.37;94.53
11542;BME280;5827;49.482;7.716;2023-05-09T07:15:06;98823.22;;;20.75;93.34
11542;BME280;5827;49.482;7.716;2023-05-09T07:17:08;98820.44;;;20.89;93.23
11542;BME280;5827;49.482;7.716;2023-05-09T07:19:10;98815.25;;;20.56;94.43
11542;BME280;5827;49.482;7.716;2023-05-09T07:21:11;98819.66;;;20.88;93.19
11542;BME280;5827;49.482;7.716;2023-05-09T07:23:13;98808.25;;;21.31;91.29
11542;BME280;5827;49.482;7.716;2023-05-09T07:25:14;98809.31;;;21.21;90.04
11542;BME280;5827;49.482;7.716;2023-05-09T07:27:15;98801.31;;;21.56;89.03
11542;BME280;5827;49.482;7.716;2023-05-09T07:29:18;98803.22;;;21.55;88.83
11542;BME280;5827;49.482;7.716;2023-05-09T07:31:20;98805.09;;;21.86;86.33
11542;BME280;5827;49.482;7.716;2023-05-09T07:33:21;98804.31;;;21.94;82.93
11542;BME280;5827;49.482;7.716;2023-05-09T07:35:23;98792.34;;;21.02;88.08
11542;BME280;5827;49.482;7.716;2023-05-09T07:37:25;98802.59;;;21.59;85.88
11542;BME280;5827;49.482;7.716;2023-05-09T07:39:27;98810.72;;;21.98;83.03
11542;BME280;5827;49.482;7.716;2023-05-09T07:41:28;98813.31;;;22.03;82.01
11542;BME280;5827;49.482;7.716;2023-05-09T07:43:30;98816.72;;;22.09;82.85
11542;BME280;5827;49.482;7.716;2023-05-09T07:45:33;98809.31;;;22.01;81.99
11542;BME280;5827;49.482;7.716;2023-05-09T07:47:35;98813.19;;;22.08;82.31
11542;BME280;5827;49.482;7.716;2023-05-09T07:49:37;98815.00;;;22.13;81.44
11542;BME280;5827;49.482;7.716;2023-05-09T07:51:39;98810.94;;;22.11;81.43
11542;BME280;5827;49.482;7.716;2023-05-09T07:53:40;98802.69;;;21.93;82.00
11542;BME280;5827;49.482;7.716;2023-05-09T07:55:42;98809.06;;;22.20;81.64
11542;BME280;5827;49.482;7.716;2023-05-09T07:57:46;98797.31;;;21.53;83.93
11542;BME280;5827;49.482;7.716;2023-05-09T07:59:48;98804.19;;;21.99;81.82
11542;BME280;5827;49.482;7.716;2023-05-09T08:01:50;98796.59;;;21.88;79.80
11542;BME280;5827;49.482;7.716;2023-05-09T08:03:52;98787.75;;;21.82;81.58
11542;BME280;5827;49.482;7.716;2023-05-09T08:05:54;98786.59;;;22.23;81.55
11542;BME280;5827;49.482;7.716;2023-05-09T08:07:55;98785.22;;;21.94;80.72
11542;BME280;5827;49.482;7.716;2023-05-09T08:09:57;98782.59;;;22.64;78.97
11542;BME280;5827;49.482;7.716;2023-05-09T08:13:41;98769.72;;;22.21;80.45
11542;BME280;5827;49.482;7.716;2023-05-09T08:15:42;98766.47;;;21.13;80.12
11542;BME280;5827;49.482;7.716;2023-05-09T08:17:43;98767.06;;;21.81;78.00
11542;BME280;5827;49.482;7.716;2023-05-09T08:19:45;98773.09;;;22.18;75.15
11542;BME280;5827;49.482;7.716;2023-05-09T08:21:46;98773.69;;;22.06;75.02
11542;BME280;5827;49.482;7.716;2023-05-09T08:23:48;98769.53;;;22.17;74.84
11542;BME280;5827;49.482;7.716;2023-05-09T08:25:51;98772.88;;;21.97;74.49
11542;BME280;5827;49.482;7.716;2023-05-09T08:27:53;98773.19;;;21.95;73.14
11542;BME280;5827;49.482;7.716;2023-05-09T08:29:56;98765.66;;;22.10;74.03
11542;BME280;5827;49.482;7.716;2023-05-09T08:31:57;98764.59;;;22.37;70.87
11542;BME280;5827;49.482;7.716;2023-05-09T08:33:59;98766.16;;;22.12;72.10
11542;BME280;5827;49.482;7.716;2023-05-09T08:36:00;98753.19;;;22.35;72.53
11542;BME280;5827;49.482;7.716;2023-05-09T08:38:02;98761.88;;;22.45;71.59
11542;BME280;5827;49.482;7.716;2023-05-09T08:40:04;98754.75;;;22.79;70.62
11542;BME280;5827;49.482;7.716;2023-05-09T08:42:07;98747.41;;;22.27;71.93
11542;BME280;5827;49.482;7.716;2023-05-09T08:44:09;98745.78;;;22.26;74.13
11542;BME280;5827;49.482;7.716;2023-05-09T08:46:13;98744.78;;;22.83;72.20
11542;BME280;5827;49.482;7.716;2023-05-09T08:48:16;98743.31;;;22.86;70.20
11542;BME280;5827;49.482;7.716;2023-05-09T08:50:19;98746.75;;;23.29;68.27
11542;BME280;5827;49.482;7.716;2023-05-09T08:52:20;98754.69;;;23.14;66.96
11542;BME280;5827;49.482;7.716;2023-05-09T08:54:23;98749.72;;;23.16;67.17
11542;BME280;5827;49.482;7.716;2023-05-09T08:56:25;98750.72;;;23.41;64.66
11542;BME280;5827;49.482;7.716;2023-05-09T08:58:27;98747.19;;;23.02;66.22
11542;BME280;5827;49.482;7.716;2023-05-09T09:00:29;98740.94;;;23.40;66.18
11542;BME280;5827;49.482;7.716;2023-05-09T09:02:34;98748.63;;;23.84;65.27
11542;BME280;5827;49.482;7.716;2023-05-09T09:04:36;98739.56;;;23.54;66.44
11542;BME280;5827;49.482;7.716;2023-05-09T09:06:38;98736.63;;;23.30;66.23
11542;BME280;5827;49.482;7.716;2023-05-09T09:08:42;98737.16;;;23.23;65.96
11542;BME280;5827;49.482;7.716;2023-05-09T09:10:44;98734.19;;;22.90;66.34
11542;BME280;5827;49.482;7.716;2023-05-09T09:12:47;98729.56;;;22.65;65.54
11542;BME280;5827;49.482;7.716;2023-05-09T09:14:53;98725.69;;;22.66;67.28
11542;BME280;5827;49.482;7.716;2023-05-09T09:16:54;98722.34;;;22.34;67.71
11542;BME280;5827;49.482;7.716;2023-05-09T09:18:59;98716.56;;;22.36;68.21
11542;BME280;5827;49.482;7.716;2023-05-09T09:21:04;98715.28;;;22.42;68.07
11542;BME280;5827;49.482;7.716;2023-05-09T09:23:08;98710.91;;;22.58;66.67
11542;BME280;5827;49.482;7.716;2023-05-09T09:25:10;98711.09;;;22.10;66.81
11542;BME280;5827;49.482;7.716;2023-05-09T09:27:12;98700.97;;;22.10;70.21
11542;BME280;5827;49.482;7.716;2023-05-09T09:29:14;98695.03;;;22.43;68.24
11542;BME280;5827;49.482;7.716;2023-05-09T09:31:19;98690.88;;;22.37;68.90
11542;BME280;5827;49.482;7.716;2023-05-09T09:33:22;98701.13;;;22.48;66.50
11542;BME280;5827;49.482;7.716;2023-05-09T09:35:25;98691.34;;;22.56;67.99
11542;BME280;5827;49.482;7.716;2023-05-09T09:37:26;98688.88;;;22.63;66.22
11542;BME280;5827;49.482;7.716;2023-05-09T09:39:28;98692.22;;;22.86;65.15
11542;BME280;5827;49.482;7.716;2023-05-09T09:41:30;98683.22;;;22.94;66.10
11542;BME280;5827;49.482;7.716;2023-05-09T09:43:32;98675.31;;;22.37;68.93
11542;BME280;5827;49.482;7.716;2023-05-09T09:45:35;98685.94;;;22.86;65.88
11542;BME280;5827;49.482;7.716;2023-05-09T09:47:37;98684.19;;;22.90;65.09
11542;BME280;5827;49.482;7.716;2023-05-09T09:49:44;98684.94;;;23.07;63.56
11542;BME280;5827;49.482;7.716;2023-05-09T09:51:50;98672.84;;;23.17;65.90
11542;BME280;5827;49.482;7.716;2023-05-09T09:53:52;98676.94;;;23.32;65.08
11542;BME280;5827;49.482;7.716;2023-05-09T09:55:53;98667.03;;;22.63;66.83
11542;BME280;5827;49.482;7.716;2023-05-09T09:57:55;98661.34;;;22.86;66.09
11542;BME280;5827;49.482;7.716;2023-05-09T09:59:59;98661.66;;;23.01;65.15
11542;BME280;5827;49.482;7.716;2023-05-09T10:02:02;98655.44;;;22.92;65.81
11542;BME280;5827;49.482;7.716;2023-05-09T10:04:04;98656.53;;;23.29;65.15
11542;BME280;5827;49.482;7.716;2023-05-09T10:06:08;98665.34;;;23.35;62.91
11542;BME280;5827;49.482;7.716;2023-05-09T10:08:12;98660.03;;;23.39;63.22
11542;BME280;5827;49.482;7.716;2023-05-09T10:10:14;98654.13;;;23.57;63.78
11542;BME280;5827;49.482;7.716;2023-05-09T10:12:16;98650.97;;;23.97;63.58
11542;BME280;5827;49.482;7.716;2023-05-09T10:14:21;98646.09;;;22.93;65.20
11542;BME280;5827;49.482;7.716;2023-05-09T10:16:23;98641.78;;;23.51;63.60
11542;BME280;5827;49.482;7.716;2023-05-09T10:18:27;98647.09;;;23.77;61.29
11542;BME280;5827;49.482;7.716;2023-05-09T10:20:30;98642.50;;;23.10;62.43
11542;BME280;5827;49.482;7.716;2023-05-09T10:22:33;98638.00;;;23.35;62.63
11542;BME280;5827;49.482;7.716;2023-05-09T10:24:43;98633.81;;;23.88;64.18
11542;BME280;5827;49.482;7.716;2023-05-09T10:26:48;98626.88;;;23.40;62.33
11542;BME280;5827;49.482;7.716;2023-05-09T10:28:54;98625.31;;;23.60;62.73
11542;BME280;5827;49.482;7.716;2023-05-09T10:31:00;98627.09;;;23.56;62.85
11542;BME280;5827;49.482;7.716;2023-05-09T10:33:07;98615.06;;;23.78;64.72
11542;BME280;5827;49.482;7.716;2023-05-09T10:35:10;98618.59;;;23.78;62.80
11542;BME280;5827;49.482;7.716;2023-05-09T10:37:14;98609.41;;;23.83;63.52
11542;BME280;5827;49.482;7.716;2023-05-09T10:39:16;98619.81;;;23.39;62.48
11542;BME280;5827;49.482;7.716;2023-05-09T10:41:20;98608.72;;;23.36;63.33
11542;BME280;5827;49.482;7.716;2023-05-09T10:43:22;98597.66;;;23.02;64.45
11542;BME280;5827;49.482;7.716;2023-05-09T10:45:24;98600.91;;;23.55;64.52
11542;BME280;5827;49.482;7.716;2023-05-09T10:47:27;98597.31;;;23.84;64.16
11542;BME280;5827;49.482;7.716;2023-05-09T10:49:31;98593.22;;;23.90;65.18
11542;BME280;5827;49.482;7.716;2023-05-09T10:51:32;98588.69;;;23.94;63.47
11542;BME280;5827;49.482;7.716;2023-05-09T10:53:40;98594.22;;;23.86;62.87
11542;BME280;5827;49.482;7.716;2023-05-09T10:55:51;98584.91;;;23.66;62.71
11542;BME280;5827;49.482;7.716;2023-05-09T10:57:54;98578.81;;;24.14;63.26
11542;BME280;5827;49.482;7.716;2023-05-09T10:59:57;98576.94;;;24.27;62.00